x

South Hatteras - 225 South Of Cape Hatteras (41002) Wave Buoy

10:50 - Mon 27th Jul 2015 All times are EDT. -4 hours from GMT.

  • Sig Wave height 4.6ft
  • Swell Direction
  • Peak Period 6s
  • Average Period 5s
  • Wind
    18mph, 20mph gusts
  • Sea Temp 82°f
  • Luft Temp 82°f
  • Sea Pressure 1015.7mb
  • South Hatteras - 225 South Of Cape Hatteras
  • South Hatteras - 225 South Of Cape Hatteras

More Historic Weather Station data

Upgrade to MSW Pro to gain access to the past 30 days of data for over 8000 Wavebouys and Weather Stations around the globe.

Join Pro

Comparision Forecast

View Surf forecast
   
Mo 07/27 10:50 4.5ft 6s 5s 18 20 mph 1015.7mb 82f 82f
9:50 5ft 7s 5s 16 20 mph 1015.8mb 82f 81f
8:50 4.5ft 6s 5s 18 25 mph 1015.6mb 82f 81f
7:50 4.5ft 6s 5s 7 11 mph 1015.6mb 82f 81f
6:50 4.5ft 7s 5s 4 7 mph 1015.7mb 82f 80f
5:50 4.5ft 6s 5s 7 9 mph 1016mb 82f 78f
4:50 4.5ft 6s 5s 7 11 mph 1015.9mb 82f 78f
3:50 4.5ft 6s 5s 20 25 mph 1016.1mb 82f 76f
2:50 4.5ft 6s 5s 2 4 mph 1016.8mb 82f 77f
1:50 4.5ft 6s 5s 4 7 mph 1016.2mb 82f 78f
12:50 4ft 6s 5s 18 22 mph 1016.8mb 82f 79f
11:50 4ft 6s 5s 9 11 mph 1016.4mb 82f 80f
10:50 4.5ft 6s 5s 13 16 mph 1015.9mb 82f 78f
9:50 4ft 6s 5s 7 9 mph 1015.7mb 82f 81f
8:50 4.5ft 7s 5s 13 16 mph 1015.2mb 82f 80f
7:50 4ft 7s  -  27 34 mph 1014.6mb 82f 78f
6:50 4ft 6s 5s 11 13 mph 1014.4mb 82f 80f
5:50 4.5ft 7s 5s 18 20 mph 1014mb 82f 80f
4:50 3.5ft 6s 5s 13 16 mph 1013.8mb 82f 80f
3:50 4.5ft 6s 6s 9 11 mph 1013.8mb 82f 78f
2:50 3.5ft 6s 6s 9 11 mph 1014.5mb 82f 78f
1:50 3.5ft 6s 5s 7 9 mph 1014.8mb 82f 78f
12:50 3.5ft 6s 5s 7 9 mph 1015mb 82f 78f
So 07/26 11:50 3.5ft 6s 5s 4
mph
1015.1mb 82f 81f
10:50 3.5ft 5s 5s 2 4 mph 1015.2mb 83f 79f
9:50 3.5ft 6s 5s 16 18 mph 1014.9mb 83f 80f
8:50 3.5ft 6s 5s 2 4 mph 1014.5mb 83f 83f
7:50 3.5ft 6s 5s 7
mph
1014.4mb 83f 83f
6:50 3ft 11s 5s 7 9 mph 1014.2mb 83f 82f
5:50 3ft 11s 5s 4 7 mph 1014.1mb 83f 81f
4:50 3ft 6s 5s 9 11 mph 1013.8mb 83f 82f
3:50 3ft 6s 5s 9 13 mph 1014.1mb 83f 80f
2:50 3.5ft 11s 5s 4 7 mph 1014.6mb 83f 78f
1:50 3.5ft 11s 5s 7 9 mph 1014.7mb 83f 80f
12:50 3ft 11s 5s 11 13 mph 1014.5mb 83f 82f
11:50 3.5ft 6s 5s 7 9 mph 1014.5mb 83f 82f
10:50 3.5ft 11s 5s 9
mph
1014.5mb 83f 82f
9:50 3.5ft 11s 5s 11 13 mph 1014.1mb 82f 81f
8:50 3.5ft 11s 5s 11 13 mph 1014.1mb 82f 81f
7:50 3.5ft 11s 6s 9 13 mph 1013.4mb 82f 81f
6:50 3.5ft 11s 5s 9 11 mph 1012.8mb 82f 80f
5:50 3.5ft 7s 5s 9 11 mph 1012.5mb 82f 80f
4:50 3.5ft 6s 5s 9 11 mph 1012.1mb 82f 82f
3:50 4ft 7s 5s 11 13 mph 1012.2mb 82f 81f
2:50 3.5ft 6s 5s 9 13 mph 1012.5mb 82f 82f
1:50 3.5ft 6s 5s 11 13 mph 1012.8mb 82f 81f
12:50 4ft 6s 5s 11 13 mph 1013.2mb 82f 82f
Sa 07/25 11:50 3.5ft 7s 5s 13 16 mph 1013.5mb 82f 82f
10:50 4ft 6s 6s 13 20 mph 1013.6mb 82f 81f
9:50 4ft 7s 6s 11 13 mph 1013.3mb 82f 82f
8:50 4.5ft 7s 6s 11 13 mph 1013.1mb 82f 82f
7:50 4.5ft 7s 6s 7
mph
1012.7mb 83f 82f
6:50 3.5ft 6s 5s 7 9 mph 1012.3mb 83f 82f
5:50 4ft 6s 5s 4 7 mph 1012mb 83f 82f
4:50 4ft 6s 5s 2 4 mph 1012.1mb 83f 83f
3:50 4.5ft 6s 5s 4 7 mph 1012mb 82f 82f
2:50 4.5ft 7s 5s 9 11 mph 1012.4mb 82f 82f
1:50 4.5ft 6s 6s 9 11 mph 1012.6mb 82f 81f
12:50 4.5ft 6s 6s 9 11 mph 1013mb 82f 81f
11:50 4.5ft 7s 6s 11
mph
1013.2mb 82f 81f
10:50 4.5ft 7s 6s 16 18 mph 1012.8mb 82f 82f
9:50 4.5ft 7s 6s 7
mph
1012.3mb 82f 83f
8:50 4ft 7s 6s 4 7 mph 1012.1mb 82f 83f
7:50 4ft 6s 6s 4
mph
1011.7mb 82f 84f
6:50 4ft 6s 6s 2 4 mph 1011.3mb 82f 82f
5:50 4ft 6s 5s  -  2 mph 1010.8mb 82f 82f
4:50 4.5ft 6s 5s 2 4 mph 1010mb 82f 82f
3:50 4.5ft 6s 5s 7 9 mph 1010.2mb 82f 82f
2:50 4.5ft 6s 5s 9 11 mph 1010.5mb 82f 82f
1:50 4ft 6s 5s 11 13 mph 1011mb 82f 82f
12:50 4.5ft 6s 5s 9 11 mph 1011.4mb 82f 80f
Fr 07/24 11:50 4.5ft 6s 5s 16 18 mph 1011.9mb 82f 82f
10:50 4.5ft 7s 5s 16 18 mph 1012.1mb 82f 82f
9:50 4.5ft 6s 5s 16 20 mph 1012mb 82f 82f
8:50 4.5ft 7s 5s 16 18 mph 1011.4mb 82f 82f
7:50 4.5ft 7s 5s 16 18 mph 1011.3mb 82f 81f
6:50 4.5ft 7s 5s 20 22 mph 1010.8mb 82f 81f
5:50 5ft 6s 5s 16 18 mph 1010.8mb 82f 80f
4:50 5ft 7s 5s 18 20 mph 1011.2mb 82f 79f
3:50 5ft 6s 5s 16 20 mph 1011.9mb 82f 80f
2:50 5ft 7s 5s 16 20 mph 1011.9mb 83f 80f
1:50 5ft 7s 5s 13 20 mph 1012.8mb 83f 80f
12:50 5ft 7s 5s 16 31 mph 1012.7mb 83f 79f
11:50 5ft 6s 5s 20 25 mph 1012.3mb 83f 84f
10:50 4.5ft 6s 5s 18 20 mph 1012.3mb 82f 84f
9:50 4.5ft 6s 5s 13 18 mph 1012.7mb 82f 83f
8:50 4.5ft 6s 5s 13 16 mph 1013mb 82f 83f
7:50 5ft 6s 5s 11 13 mph 1012.8mb 82f 82f
6:50 5ft 6s 5s 7 9 mph 1012.1mb 82f 81f
5:50 5ft 6s 5s 4 7 mph 1012.2mb 82f 79f
4:50 5ft 6s 5s 22 27 mph 1012.1mb 82f 79f
3:50 4.5ft 6s 5s 22 27 mph 1012mb 82f 84f